createdAt,value
2022-12-27T00:00:11.011Z,0.80
2022-12-27T00:05:09.595Z,0.50
2022-12-27T00:10:08.250Z,0.30
2022-12-27T00:15:06.297Z,0.20
2022-12-27T00:20:11.044Z,0.30
2022-12-27T00:25:10.069Z,0.30
2022-12-27T00:30:08.836Z,0.10
2022-12-27T00:35:06.553Z,0.20
2022-12-27T00:40:04.108Z,0.10
2022-12-27T00:45:01.277Z,0.00
2022-12-27T00:49:58.679Z,0.10
2022-12-27T00:54:56.039Z,0.20
2022-12-27T00:59:53.445Z,0.30
2022-12-27T01:04:50.714Z,0.30
2022-12-27T01:09:48.027Z,0.10
2022-12-27T01:14:45.624Z,0.00
2022-12-27T01:19:42.948Z,-0.30
2022-12-27T01:24:40.179Z,-0.30
2022-12-27T01:29:37.497Z,-0.30
2022-12-27T01:34:34.961Z,-0.20
2022-12-27T01:39:32.289Z,-0.10
2022-12-27T01:44:38.899Z,-0.20
2022-12-27T01:49:36.192Z,-0.20
2022-12-27T01:54:33.721Z,-0.30
2022-12-27T01:59:32.286Z,-0.20
2022-12-27T02:04:32.239Z,-0.30
2022-12-27T02:09:40.261Z,-0.30
2022-12-27T02:14:47.213Z,-0.30
2022-12-27T02:20:05.830Z,-0.30
2022-12-27T02:25:27.455Z,-0.40
2022-12-27T02:30:25.371Z,-0.30
2022-12-27T02:35:36.087Z,-0.30
2022-12-27T02:41:10.268Z,-0.20
2022-12-27T02:46:42.204Z,-0.20
2022-12-27T02:52:13.226Z,-0.60
2022-12-27T02:57:40.049Z,-0.30
2022-12-27T03:03:29.008Z,-0.20
2022-12-27T03:08:35.829Z,-0.10
2022-12-27T03:13:54.736Z,0.10
2022-12-27T03:18:55.256Z,0.10
2022-12-27T03:24:15.381Z,0.20
2022-12-27T03:29:33.747Z,0.30
2022-12-27T03:34:40.171Z,0.40
2022-12-27T03:39:40.693Z,0.20
2022-12-27T03:44:38.425Z,-0.10
2022-12-27T03:49:48.528Z,0.00
2022-12-27T03:54:49.400Z,0.30
2022-12-27T03:59:46.871Z,0.50
2022-12-27T04:04:44.497Z,0.70
2022-12-27T04:10:00.608Z,0.80
2022-12-27T04:15:16.508Z,0.30
2022-12-27T04:20:33.190Z,0.10
2022-12-27T04:25:48.986Z,-0.10
2022-12-27T04:31:04.820Z,-0.10
2022-12-27T04:36:06.220Z,0.00
2022-12-27T04:41:23.359Z,-0.10
2022-12-27T04:46:44.518Z,-0.10
2022-12-27T04:52:00.896Z,-0.10
2022-12-27T04:56:58.974Z,-0.10
2022-12-27T05:02:04.935Z,0.00
2022-12-27T05:07:47.969Z,0.00
2022-12-27T05:13:07.664Z,0.10
2022-12-27T05:18:06.672Z,0.30
2022-12-27T05:23:22.404Z,0.20
2022-12-27T05:28:20.048Z,0.00
2022-12-27T05:33:17.500Z,0.00
2022-12-27T05:38:14.962Z,0.00
2022-12-27T05:43:12.463Z,0.00
2022-12-27T05:48:09.730Z,0.00
2022-12-27T05:53:07.239Z,0.00
2022-12-27T05:58:04.475Z,-0.10
2022-12-27T06:03:03.408Z,0.00
2022-12-27T06:08:01.267Z,0.10
2022-12-27T06:13:02.218Z,0.10
2022-12-27T06:18:00.620Z,0.10
2022-12-27T06:23:00.241Z,0.20
2022-12-27T06:27:57.548Z,0.20
2022-12-27T06:32:54.836Z,0.10
2022-12-27T06:37:52.111Z,0.30
2022-12-27T06:42:49.341Z,0.30
2022-12-27T06:47:46.751Z,0.30
2022-12-27T06:52:44.032Z,0.40
2022-12-27T06:57:41.260Z,0.60
2022-12-27T07:02:38.958Z,0.80
2022-12-27T07:07:36.313Z,1.00
2022-12-27T07:12:36.761Z,1.10
2022-12-27T07:17:37.679Z,0.80
2022-12-27T07:22:35.037Z,0.20
2022-12-27T07:27:36.169Z,0.20
2022-12-27T07:32:33.526Z,0.20
2022-12-27T07:37:30.765Z,0.00
2022-12-27T07:42:29.244Z,0.00
2022-12-27T07:47:26.833Z,-0.10
2022-12-27T07:52:24.555Z,0.00
2022-12-27T07:57:21.968Z,0.10
2022-12-27T08:02:19.342Z,0.30
2022-12-27T08:07:19.174Z,0.70
2022-12-27T08:12:16.933Z,0.50
2022-12-27T08:17:20.503Z,0.50
2022-12-27T08:22:17.946Z,0.60
2022-12-27T08:27:22.242Z,0.70
2022-12-27T08:32:19.657Z,0.90
2022-12-27T08:37:17.190Z,1.00
2022-12-27T08:42:14.434Z,1.10
2022-12-27T08:47:11.878Z,1.30
2022-12-27T08:52:09.150Z,1.30
2022-12-27T08:57:06.360Z,1.40
2022-12-27T09:02:03.715Z,1.40
2022-12-27T09:07:01.522Z,1.40
2022-12-27T09:12:02.245Z,1.40
2022-12-27T09:17:00.443Z,1.30
2022-12-27T09:21:58.043Z,1.50
2022-12-27T09:32:10.543Z,1.90
2022-12-27T09:37:08.331Z,2.10
2022-12-27T09:47:56.726Z,2.20
2022-12-27T09:53:07.378Z,2.00
2022-12-27T09:58:19.940Z,1.80
2022-12-27T10:03:20.139Z,1.60
2022-12-27T10:09:01.485Z,1.60
2022-12-27T10:14:07.998Z,2.00
2022-12-27T10:19:23.775Z,2.10
2022-12-27T10:24:26.549Z,2.20
2022-12-27T10:29:33.156Z,2.50
2022-12-27T10:34:30.865Z,2.50
2022-12-27T10:39:36.303Z,2.60
2022-12-27T10:44:33.634Z,2.70
2022-12-27T10:49:33.696Z,2.60
2022-12-27T10:54:31.252Z,2.40
2022-12-27T10:59:29.314Z,2.20
2022-12-27T11:04:27.383Z,2.10
2022-12-27T11:09:30.535Z,2.10
2022-12-27T11:14:28.166Z,2.40
2022-12-27T11:19:27.589Z,2.40
2022-12-27T11:24:24.909Z,2.40
2022-12-27T11:29:25.145Z,2.40
2022-12-27T11:34:33.173Z,2.50
2022-12-27T11:39:52.693Z,2.20
2022-12-27T11:45:18.972Z,2.40
2022-12-27T11:50:56.907Z,2.90
2022-12-27T11:56:07.475Z,2.80
2022-12-27T12:01:23.392Z,3.30
2022-12-27T12:06:31.439Z,3.10
2022-12-27T12:11:38.041Z,2.80
2022-12-27T12:16:53.923Z,2.80
2022-12-27T12:22:30.202Z,3.00
2022-12-27T12:27:33.281Z,3.20
2022-12-27T12:32:56.825Z,3.30
2022-12-27T12:38:00.135Z,3.30
2022-12-27T12:43:13.507Z,3.30
2022-12-27T12:48:58.327Z,3.10
2022-12-27T12:53:58.475Z,2.90
2022-12-27T12:59:17.449Z,3.00
2022-12-27T13:04:23.681Z,3.00
2022-12-27T13:09:45.774Z,2.60
2022-12-27T13:15:12.332Z,2.70
2022-12-27T13:20:34.390Z,2.60
2022-12-27T13:26:03.517Z,2.50
2022-12-27T13:31:13.081Z,2.70
2022-12-27T13:36:16.765Z,2.60
2022-12-27T13:41:42.045Z,2.50
2022-12-27T13:47:01.342Z,2.20
2022-12-27T13:52:40.103Z,2.00
2022-12-27T13:58:07.890Z,2.00
2022-12-27T14:03:23.816Z,2.00
2022-12-27T14:08:58.766Z,2.00
2022-12-27T14:14:02.156Z,2.10
2022-12-27T14:19:12.224Z,2.20
2022-12-27T14:24:40.320Z,2.20
2022-12-27T14:29:56.212Z,2.10
2022-12-27T14:35:11.584Z,2.10
2022-12-27T14:40:34.428Z,2.10
2022-12-27T14:45:44.083Z,2.10
2022-12-27T14:51:50.084Z,2.00
2022-12-27T14:56:37.738Z,2.00
2022-12-27T15:02:02.374Z,1.90
2022-12-27T15:07:36.796Z,1.90
2022-12-27T15:13:01.821Z,1.80
2022-12-27T15:18:14.515Z,1.70
2022-12-27T15:23:50.350Z,1.70
2022-12-27T15:29:06.488Z,1.80
2022-12-27T15:34:24.538Z,2.00
2022-12-27T15:39:34.564Z,2.10
2022-12-27T15:44:55.588Z,2.10
2022-12-27T15:50:43.284Z,2.20
2022-12-27T15:56:02.579Z,1.90
2022-12-27T16:01:25.505Z,1.90
2022-12-27T16:06:43.735Z,1.90
2022-12-27T16:12:06.098Z,1.70
2022-12-27T16:17:24.694Z,1.70
2022-12-27T16:22:51.964Z,1.50
2022-12-27T16:28:24.030Z,1.40
2022-12-27T16:33:27.525Z,1.50
2022-12-27T16:38:24.898Z,1.40
2022-12-27T16:43:41.309Z,1.40
2022-12-27T16:49:11.274Z,1.50
2022-12-27T16:54:19.129Z,1.50
2022-12-27T17:00:02.658Z,1.70
2022-12-27T17:05:01.558Z,2.00
2022-12-27T17:10:27.588Z,2.10
2022-12-27T17:15:25.728Z,1.80
2022-12-27T17:20:24.456Z,1.80
2022-12-27T17:25:31.914Z,1.70
2022-12-27T17:30:55.093Z,1.60
2022-12-27T17:36:01.064Z,1.60
2022-12-27T17:41:45.589Z,1.60
2022-12-27T17:46:57.656Z,1.60
2022-12-27T17:52:14.192Z,1.70
2022-12-27T17:57:32.409Z,1.90
2022-12-27T18:02:36.302Z,2.10
2022-12-27T18:07:34.859Z,2.10
2022-12-27T18:12:38.385Z,2.10
2022-12-27T18:17:42.303Z,2.00
2022-12-27T18:22:39.619Z,2.10
2022-12-27T18:27:36.798Z,1.80
2022-12-27T18:32:35.473Z,1.60
2022-12-27T18:37:36.466Z,1.60
2022-12-27T18:42:51.290Z,1.70
2022-12-27T18:47:51.421Z,1.70
2022-12-27T18:52:54.704Z,1.90
2022-12-27T18:58:06.584Z,1.70
2022-12-27T19:03:15.553Z,1.60
2022-12-27T19:08:20.244Z,1.80
2022-12-27T19:13:36.657Z,1.70
2022-12-27T19:18:38.618Z,1.60
2022-12-27T19:23:38.795Z,1.60
2022-12-27T19:28:39.757Z,1.70
2022-12-27T19:33:39.757Z,1.70
2022-12-27T19:38:42.731Z,1.60
2022-12-27T19:43:46.815Z,1.80
2022-12-27T19:48:44.087Z,1.90
2022-12-27T19:53:44.063Z,1.80
2022-12-27T19:58:44.233Z,1.70
2022-12-27T20:03:41.581Z,1.70
2022-12-27T20:08:42.852Z,1.60
2022-12-27T20:13:40.309Z,1.60
2022-12-27T20:18:38.956Z,1.60
2022-12-27T20:23:37.688Z,1.70
2022-12-27T20:28:34.994Z,1.70
2022-12-27T20:33:32.354Z,1.70
2022-12-27T20:38:29.805Z,1.60
2022-12-27T20:43:27.321Z,1.50
2022-12-27T20:48:24.526Z,1.70
2022-12-27T20:53:21.771Z,1.60
2022-12-27T20:58:19.005Z,1.40
2022-12-27T21:03:16.346Z,1.50
2022-12-27T21:08:13.674Z,1.50
2022-12-27T21:13:10.902Z,1.60
2022-12-27T21:18:08.200Z,1.70
2022-12-27T21:23:05.474Z,1.80
2022-12-27T21:28:02.913Z,1.70
2022-12-27T21:33:00.770Z,1.60
2022-12-27T21:37:58.576Z,1.70
2022-12-27T21:42:55.883Z,1.80
2022-12-27T21:47:53.143Z,1.80
2022-12-27T21:52:50.481Z,1.80
2022-12-27T21:57:47.828Z,1.80
2022-12-27T22:02:50.154Z,1.80
2022-12-27T22:07:47.622Z,1.70
2022-12-27T22:12:45.208Z,1.70
2022-12-27T22:17:43.097Z,1.60
2022-12-27T22:22:40.542Z,1.70
2022-12-27T22:27:37.800Z,1.80
2022-12-27T22:32:35.079Z,1.80
2022-12-27T22:37:32.457Z,1.90
2022-12-27T22:42:29.738Z,1.90
2022-12-27T22:47:28.125Z,1.80
2022-12-27T22:52:25.894Z,1.70
2022-12-27T22:57:23.452Z,1.70
2022-12-27T23:02:20.740Z,1.70
2022-12-27T23:07:21.311Z,1.50
2022-12-27T23:12:38.561Z,1.50
2022-12-27T23:17:35.835Z,1.70
2022-12-27T23:22:33.158Z,1.80
2022-12-27T23:27:33.261Z,1.90
2022-12-27T23:32:30.393Z,2.10
2022-12-27T23:37:27.682Z,2.10
2022-12-27T23:42:25.069Z,2.20
2022-12-27T23:47:22.405Z,2.20
2022-12-27T23:52:19.842Z,1.90
2022-12-27T23:57:20.033Z,2.00
